createdAt,value
2022-10-04T00:02:39.107Z,6.88
2022-10-04T00:07:47.611Z,10.03
2022-10-04T00:12:58.473Z,5.28
2022-10-04T00:18:05.479Z,8.35
2022-10-04T00:23:36.969Z,4.70
2022-10-04T00:28:40.119Z,7.72
2022-10-04T00:33:44.643Z,5.38
2022-10-04T00:39:08.038Z,10.52
2022-10-04T00:44:17.832Z,12.82
2022-10-04T00:49:23.631Z,7.68
2022-10-04T00:54:41.483Z,5.20
2022-10-04T00:59:49.892Z,5.65
2022-10-04T01:04:57.098Z,5.88
2022-10-04T01:10:02.442Z,10.13
2022-10-04T01:15:04.892Z,7.90
2022-10-04T01:20:33.493Z,7.10
2022-10-04T01:25:46.185Z,9.27
2022-10-04T01:30:48.506Z,7.68
2022-10-04T01:35:50.860Z,8.25
2022-10-04T01:41:00.110Z,5.78
2022-10-04T01:46:09.876Z,7.50
2022-10-04T01:51:17.471Z,6.80
2022-10-04T01:56:23.689Z,7.00
2022-10-04T02:01:41.467Z,6.82
2022-10-04T02:06:45.324Z,8.77
2022-10-04T02:11:52.742Z,4.97
2022-10-04T02:16:55.200Z,10.77
2022-10-04T02:21:58.409Z,8.52
2022-10-04T02:27:00.722Z,8.93
2022-10-04T02:32:24.170Z,8.68
2022-10-04T02:37:27.745Z,8.52
2022-10-04T02:48:26.835Z,8.27
2022-10-04T02:53:41.479Z,6.20
2022-10-04T02:58:43.977Z,7.97
2022-10-04T03:03:46.979Z,7.53
2022-10-04T03:08:53.225Z,8.27
2022-10-04T03:13:57.878Z,9.43
2022-10-04T03:19:01.156Z,9.93
2022-10-04T03:24:06.460Z,8.98
2022-10-04T03:29:10.441Z,7.35
2022-10-04T03:34:15.722Z,5.18
2022-10-04T03:39:28.240Z,6.55
2022-10-04T03:44:32.057Z,7.88
2022-10-04T03:49:50.842Z,9.13
2022-10-04T03:54:55.407Z,7.85
2022-10-04T03:59:58.688Z,9.13
2022-10-04T04:05:20.912Z,10.80
2022-10-04T04:10:32.262Z,9.43
2022-10-04T04:15:35.635Z,9.20
2022-10-04T04:20:38.932Z,8.00
2022-10-04T04:25:44.384Z,7.07
2022-10-04T04:30:49.080Z,12.70
2022-10-04T04:35:55.795Z,12.38
2022-10-04T04:40:58.155Z,8.05
2022-10-04T04:46:25.454Z,7.65
2022-10-04T04:51:24.075Z,9.52
2022-10-04T04:56:28.439Z,13.68
2022-10-04T05:01:43.882Z,8.00
2022-10-04T05:06:49.105Z,16.33
2022-10-04T05:11:52.826Z,12.57
2022-10-04T05:16:55.427Z,14.18
2022-10-04T05:22:01.101Z,14.30
2022-10-04T05:27:06.211Z,13.63
2022-10-04T05:32:24.888Z,16.27
2022-10-04T05:38:07.264Z,15.13
2022-10-04T05:43:30.456Z,14.07
2022-10-04T05:48:35.906Z,10.95
2022-10-04T05:53:42.214Z,11.98
2022-10-04T05:58:56.224Z,11.45
2022-10-04T06:04:02.603Z,12.63
2022-10-04T06:09:47.446Z,7.88
2022-10-04T06:15:25.377Z,14.20
2022-10-04T06:20:52.365Z,11.68
2022-10-04T06:26:06.213Z,10.77
2022-10-04T06:31:14.598Z,10.38
2022-10-04T06:36:44.341Z,23.30
2022-10-04T06:42:09.439Z,17.33
2022-10-04T06:47:28.153Z,10.65
2022-10-04T06:52:54.288Z,10.20
2022-10-04T06:58:18.660Z,9.73
2022-10-04T07:03:31.556Z,14.85
2022-10-04T07:08:36.997Z,11.27
2022-10-04T07:13:59.037Z,8.70
2022-10-04T07:19:27.584Z,7.75
2022-10-04T07:24:53.796Z,9.93
2022-10-04T07:29:58.768Z,12.18
2022-10-04T07:35:08.800Z,10.90
2022-10-04T07:40:30.011Z,12.55
2022-10-04T07:45:39.997Z,15.60
2022-10-04T07:50:51.960Z,6.50
2022-10-04T07:56:18.045Z,7.47
2022-10-04T08:01:40.622Z,12.00
2022-10-04T08:07:03.863Z,6.55
2022-10-04T08:12:18.123Z,8.65
2022-10-04T08:17:32.425Z,11.25
2022-10-04T08:22:50.099Z,16.98
2022-10-04T08:28:25.922Z,11.80
2022-10-04T08:34:08.542Z,11.13
2022-10-04T08:39:35.999Z,10.30
2022-10-04T08:45:22.637Z,8.23
2022-10-04T08:50:31.315Z,10.43
2022-10-04T08:55:44.155Z,8.30
2022-10-04T09:01:28.391Z,9.98
2022-10-04T09:13:31.445Z,8.40
2022-10-04T09:24:51.432Z,61.20
2022-10-04T09:49:27.550Z,8.32
2022-10-04T09:54:47.335Z,8.10
2022-10-04T10:00:07.838Z,10.20
2022-10-04T10:12:01.761Z,5.45
2022-10-04T10:17:16.183Z,10.82
2022-10-04T10:22:50.638Z,7.45
2022-10-04T10:34:56.396Z,8.95
2022-10-04T10:40:54.519Z,12.43
2022-10-04T10:46:23.725Z,8.82
2022-10-04T10:52:14.928Z,5.03
2022-10-04T10:58:09.733Z,5.22
2022-10-04T11:04:32.509Z,5.43
2022-10-04T11:10:30.366Z,7.07
2022-10-04T11:16:13.328Z,5.40
2022-10-04T11:22:00.335Z,7.70
2022-10-04T11:34:00.535Z,19.15
2022-10-04T11:46:19.928Z,12.88
2022-10-04T11:58:42.422Z,18.33
2022-10-04T12:04:00.193Z,14.35
2022-10-04T12:09:25.182Z,21.77
2022-10-04T12:14:38.954Z,26.10
2022-10-04T12:20:34.660Z,19.75
2022-10-04T12:26:26.549Z,26.73
2022-10-04T12:31:59.904Z,32.08
2022-10-04T12:37:20.955Z,22.73
2022-10-04T12:42:46.965Z,22.08
2022-10-04T12:48:05.278Z,7.53
2022-10-04T12:53:34.747Z,5.88
2022-10-04T12:58:53.620Z,20.45
2022-10-04T13:04:29.081Z,38.47
2022-10-04T13:09:55.118Z,40.88
2022-10-04T13:15:24.421Z,26.27
2022-10-04T13:28:08.284Z,8.73
2022-10-04T13:34:12.672Z,6.95
2022-10-04T13:39:43.189Z,8.77
2022-10-04T13:45:11.087Z,9.02
2022-10-04T13:50:28.647Z,15.48
2022-10-04T13:56:08.616Z,22.10
2022-10-04T14:01:49.593Z,11.43
2022-10-04T14:07:10.713Z,9.00
2022-10-04T14:12:36.537Z,8.60
2022-10-04T14:18:13.323Z,14.98
2022-10-04T14:23:47.434Z,21.38
2022-10-04T14:29:29.019Z,19.08
2022-10-04T14:35:05.384Z,15.60
2022-10-04T14:40:24.066Z,10.23
2022-10-04T14:46:01.209Z,6.70
2022-10-04T14:51:30.219Z,4.57
2022-10-04T14:56:38.517Z,10.00
2022-10-04T15:02:07.834Z,6.47
2022-10-04T15:07:19.099Z,8.13
2022-10-04T15:13:11.172Z,12.25
2022-10-04T15:18:31.330Z,12.88
2022-10-04T15:23:50.630Z,78.68
2022-10-04T15:29:29.246Z,31.52
2022-10-04T15:34:36.992Z,13.27
2022-10-04T15:39:58.985Z,34.13
2022-10-04T15:45:17.347Z,243.00
2022-10-04T15:50:52.569Z,275.70
2022-10-04T15:56:00.490Z,163.77
2022-10-04T16:01:13.041Z,78.40
2022-10-04T16:07:00.078Z,51.90
2022-10-04T16:12:44.409Z,49.42
2022-10-04T16:18:15.884Z,51.88
2022-10-04T16:23:24.124Z,53.42
2022-10-04T16:28:49.979Z,46.35
2022-10-04T16:34:43.173Z,47.33
2022-10-04T16:40:00.795Z,45.95
2022-10-04T16:45:06.195Z,63.50
2022-10-04T16:50:10.402Z,92.72
2022-10-04T16:55:30.518Z,142.82
2022-10-04T17:00:37.989Z,186.73
2022-10-04T17:05:47.547Z,214.07
2022-10-04T17:10:49.971Z,178.93
2022-10-04T17:16:05.805Z,163.13
2022-10-04T17:21:28.642Z,144.30
2022-10-04T17:27:02.001Z,162.20
2022-10-04T17:32:24.358Z,136.02
2022-10-04T17:37:36.949Z,130.80
2022-10-04T17:43:07.614Z,97.65
2022-10-04T17:48:43.368Z,66.07
2022-10-04T17:54:06.821Z,83.25
2022-10-04T17:59:30.652Z,74.68
2022-10-04T18:04:36.539Z,66.22
2022-10-04T18:09:53.920Z,73.07
2022-10-04T18:15:07.513Z,100.97
2022-10-04T18:20:32.385Z,129.23
2022-10-04T18:25:35.283Z,102.50
2022-10-04T18:30:46.967Z,90.73
2022-10-04T18:36:01.022Z,91.43
2022-10-04T18:41:05.552Z,83.22
2022-10-04T18:46:11.860Z,82.47
2022-10-04T18:51:44.072Z,70.68
2022-10-04T18:57:10.553Z,71.13
2022-10-04T19:02:24.369Z,71.13
2022-10-04T19:12:41.275Z,66.90
2022-10-04T19:18:05.148Z,70.45
2022-10-04T19:28:22.845Z,64.85
2022-10-04T19:33:36.863Z,52.50
2022-10-04T19:39:16.974Z,44.28
2022-10-04T19:44:54.568Z,58.55
2022-10-04T19:50:04.111Z,55.80
2022-10-04T19:55:28.868Z,56.08
2022-10-04T20:00:32.467Z,86.75
2022-10-04T20:05:42.526Z,80.72
2022-10-04T20:10:44.858Z,65.20
2022-10-04T20:15:49.348Z,49.97
2022-10-04T20:20:57.104Z,43.65
2022-10-04T20:26:00.536Z,32.65
2022-10-04T20:31:05.541Z,35.33
2022-10-04T20:36:09.378Z,30.80
2022-10-04T20:41:49.255Z,32.33
2022-10-04T20:46:51.786Z,29.05
2022-10-04T20:51:54.161Z,37.58
2022-10-04T20:56:56.427Z,32.95
2022-10-04T21:02:13.707Z,29.30
2022-10-04T21:07:30.103Z,32.80
2022-10-04T21:12:34.801Z,31.92
2022-10-04T21:17:37.364Z,31.50
2022-10-04T21:22:40.457Z,29.38
2022-10-04T21:32:47.207Z,37.22
2022-10-04T21:37:51.537Z,35.80
2022-10-04T21:42:54.291Z,34.15
2022-10-04T21:47:56.764Z,32.53
2022-10-04T21:52:59.875Z,28.70
2022-10-04T21:58:02.751Z,31.95
2022-10-04T22:08:21.447Z,36.95
2022-10-04T22:13:23.749Z,28.27
2022-10-04T22:18:26.020Z,24.25
2022-10-04T22:23:33.988Z,20.45
2022-10-04T22:28:38.571Z,21.20
2022-10-04T22:33:42.781Z,21.63
2022-10-04T22:38:51.888Z,26.55
2022-10-04T22:43:56.915Z,26.73
2022-10-04T22:48:59.810Z,28.05
2022-10-04T22:54:02.064Z,25.13
2022-10-04T22:59:04.241Z,28.88
2022-10-04T23:04:23.995Z,23.38
2022-10-04T23:09:28.616Z,19.75
2022-10-04T23:14:35.507Z,24.08
2022-10-04T23:19:37.747Z,17.55
2022-10-04T23:24:40.076Z,17.48
2022-10-04T23:29:42.821Z,15.10
2022-10-04T23:34:47.038Z,15.27
2022-10-04T23:39:49.508Z,16.27
2022-10-04T23:44:52.042Z,13.20
2022-10-04T23:49:54.246Z,12.20
2022-10-04T23:54:56.619Z,12.63
